sensor_id;sensor_type;location;lat;lon;timestamp;pressure;altitude;pressure_sealevel;temperature;humidity
55675;BME280;41562;44.330;23.802;2023-07-22T00:02:04;99875.25;;;24.47;100.00
55675;BME280;41562;44.330;23.802;2023-07-22T00:04:49;99861.31;;;24.59;98.63
55675;BME280;41562;44.330;23.802;2023-07-22T00:07:35;99853.03;;;24.52;100.00
55675;BME280;41562;44.330;23.802;2023-07-22T00:10:20;99869.28;;;24.41;100.00
55675;BME280;41562;44.330;23.802;2023-07-22T00:13:06;99858.44;;;24.48;100.00
55675;BME280;41562;44.330;23.802;2023-07-22T00:15:51;99849.88;;;24.50;100.00
55675;BME280;41562;44.330;23.802;2023-07-22T00:18:36;99840.69;;;24.65;99.19
55675;BME280;41562;44.330;23.802;2023-07-22T00:21:21;99836.56;;;24.44;100.00
55675;BME280;41562;44.330;23.802;2023-07-22T00:24:07;99832.69;;;24.49;99.72
55675;BME280;41562;44.330;23.802;2023-07-22T00:26:52;99824.53;;;24.53;100.00
55675;BME280;41562;44.330;23.802;2023-07-22T00:29:37;99831.34;;;24.32;100.00
55675;BME280;41562;44.330;23.802;2023-07-22T00:32:22;99829.53;;;24.14;100.00
55675;BME280;41562;44.330;23.802;2023-07-22T00:35:08;99816.81;;;24.28;100.00
55675;BME280;41562;44.330;23.802;2023-07-22T00:37:54;99840.56;;;24.21;100.00
55675;BME280;41562;44.330;23.802;2023-07-22T00:40:40;99844.75;;;24.15;100.00
55675;BME280;41562;44.330;23.802;2023-07-22T00:43:25;99853.53;;;24.27;100.00
55675;BME280;41562;44.330;23.802;2023-07-22T00:46:10;99844.31;;;24.39;100.00
55675;BME280;41562;44.330;23.802;2023-07-22T00:48:55;99841.75;;;24.57;100.00
55675;BME280;41562;44.330;23.802;2023-07-22T00:51:41;99831.16;;;24.52;100.00
55675;BME280;41562;44.330;23.802;2023-07-22T00:54:26;99847.16;;;24.50;100.00
55675;BME280;41562;44.330;23.802;2023-07-22T00:57:12;99834.00;;;24.29;100.00
55675;BME280;41562;44.330;23.802;2023-07-22T00:59:57;99843.69;;;24.23;100.00
55675;BME280;41562;44.330;23.802;2023-07-22T01:02:43;99839.13;;;24.00;100.00
55675;BME280;41562;44.330;23.802;2023-07-22T01:05:30;99852.88;;;24.08;100.00
55675;BME280;41562;44.330;23.802;2023-07-22T01:08:16;99862.44;;;24.21;100.00
55675;BME280;41562;44.330;23.802;2023-07-22T01:11:02;99856.38;;;24.08;100.00
55675;BME280;41562;44.330;23.802;2023-07-22T01:13:47;99855.16;;;24.32;100.00
55675;BME280;41562;44.330;23.802;2023-07-22T01:16:32;99850.16;;;24.11;100.00
55675;BME280;41562;44.330;23.802;2023-07-22T01:19:18;99848.13;;;23.75;100.00
55675;BME280;41562;44.330;23.802;2023-07-22T01:22:06;99839.16;;;23.02;100.00
55675;BME280;41562;44.330;23.802;2023-07-22T01:24:52;99846.63;;;22.82;100.00
55675;BME280;41562;44.330;23.802;2023-07-22T01:27:37;99860.25;;;22.63;100.00
55675;BME280;41562;44.330;23.802;2023-07-22T01:30:23;99847.53;;;22.52;100.00
55675;BME280;41562;44.330;23.802;2023-07-22T01:33:12;99845.91;;;22.47;100.00
55675;BME280;41562;44.330;23.802;2023-07-22T01:35:58;99857.38;;;22.56;100.00
55675;BME280;41562;44.330;23.802;2023-07-22T01:38:43;99864.25;;;22.69;100.00
55675;BME280;41562;44.330;23.802;2023-07-22T01:41:28;99874.72;;;22.67;100.00
55675;BME280;41562;44.330;23.802;2023-07-22T01:44:14;99876.09;;;22.58;100.00
55675;BME280;41562;44.330;23.802;2023-07-22T01:47:02;99884.19;;;22.54;100.00
55675;BME280;41562;44.330;23.802;2023-07-22T01:49:47;99899.22;;;22.44;100.00
55675;BME280;41562;44.330;23.802;2023-07-22T01:52:33;99917.06;;;22.61;100.00
55675;BME280;41562;44.330;23.802;2023-07-22T01:55:18;99912.16;;;22.51;100.00
55675;BME280;41562;44.330;23.802;2023-07-22T01:58:04;99923.16;;;22.55;100.00
55675;BME280;41562;44.330;23.802;2023-07-22T02:00:50;99925.91;;;22.39;100.00
55675;BME280;41562;44.330;23.802;2023-07-22T02:03:35;99934.38;;;22.34;100.00
55675;BME280;41562;44.330;23.802;2023-07-22T02:06:21;99918.78;;;22.31;100.00
55675;BME280;41562;44.330;23.802;2023-07-22T02:09:07;99917.38;;;22.21;100.00
55675;BME280;41562;44.330;23.802;2023-07-22T02:11:52;99921.75;;;22.26;100.00
55675;BME280;41562;44.330;23.802;2023-07-22T02:14:38;99932.94;;;22.21;100.00
55675;BME280;41562;44.330;23.802;2023-07-22T02:17:30;99931.72;;;22.18;100.00
55675;BME280;41562;44.330;23.802;2023-07-22T02:20:22;99920.94;;;22.06;100.00
55675;BME280;41562;44.330;23.802;2023-07-22T02:23:14;99914.72;;;22.05;100.00
55675;BME280;41562;44.330;23.802;2023-07-22T02:26:06;99909.97;;;22.02;100.00
55675;BME280;41562;44.330;23.802;2023-07-22T02:28:57;99904.00;;;21.97;100.00
55675;BME280;41562;44.330;23.802;2023-07-22T02:31:49;99909.97;;;22.02;100.00
55675;BME280;41562;44.330;23.802;2023-07-22T02:34:42;99932.03;;;21.97;100.00
55675;BME280;41562;44.330;23.802;2023-07-22T02:37:36;99930.16;;;22.01;100.00
55675;BME280;41562;44.330;23.802;2023-07-22T02:40:28;99933.78;;;22.05;100.00
55675;BME280;41562;44.330;23.802;2023-07-22T02:43:20;99953.69;;;22.10;100.00
55675;BME280;41562;44.330;23.802;2023-07-22T02:46:15;99959.25;;;21.97;100.00
55675;BME280;41562;44.330;23.802;2023-07-22T02:49:07;99961.06;;;22.09;100.00
55675;BME280;41562;44.330;23.802;2023-07-22T02:51:58;99973.72;;;22.01;100.00
55675;BME280;41562;44.330;23.802;2023-07-22T02:57:59;99961.25;;;22.00;100.00
55675;BME280;41562;44.330;23.802;2023-07-22T03:00:50;99967.22;;;21.90;100.00
55675;BME280;41562;44.330;23.802;2023-07-22T03:03:42;99981.72;;;22.10;100.00
55675;BME280;41562;44.330;23.802;2023-07-22T03:06:34;99995.41;;;22.14;100.00
55675;BME280;41562;44.330;23.802;2023-07-22T03:09:26;99996.84;;;22.08;100.00
55675;BME280;41562;44.330;23.802;2023-07-22T03:12:18;99985.34;;;23.26;100.00
55675;BME280;41562;44.330;23.802;2023-07-22T03:15:10;99991.84;;;23.86;100.00
55675;BME280;41562;44.330;23.802;2023-07-22T03:18:02;99995.28;;;24.06;100.00
55675;BME280;41562;44.330;23.802;2023-07-22T03:20:54;100012.44;;;24.29;100.00
55675;BME280;41562;44.330;23.802;2023-07-22T03:23:46;100016.19;;;23.95;100.00
55675;BME280;41562;44.330;23.802;2023-07-22T03:26:38;100028.97;;;24.14;100.00
55675;BME280;41562;44.330;23.802;2023-07-22T03:29:30;100046.34;;;24.25;100.00
55675;BME280;41562;44.330;23.802;2023-07-22T03:32:22;100043.84;;;24.16;100.00
55675;BME280;41562;44.330;23.802;2023-07-22T03:35:15;100047.66;;;24.34;100.00
55675;BME280;41562;44.330;23.802;2023-07-22T03:38:07;100037.69;;;24.19;100.00
55675;BME280;41562;44.330;23.802;2023-07-22T03:40:59;100038.50;;;24.23;100.00
55675;BME280;41562;44.330;23.802;2023-07-22T03:43:51;100037.31;;;24.47;100.00
55675;BME280;41562;44.330;23.802;2023-07-22T03:46:43;100044.22;;;24.37;100.00
55675;BME280;41562;44.330;23.802;2023-07-22T03:49:35;100042.53;;;23.84;100.00
55675;BME280;41562;44.330;23.802;2023-07-22T03:52:27;100046.66;;;23.97;100.00
55675;BME280;41562;44.330;23.802;2023-07-22T03:55:19;100031.28;;;24.12;100.00
55675;BME280;41562;44.330;23.802;2023-07-22T03:58:11;100020.91;;;23.98;100.00
55675;BME280;41562;44.330;23.802;2023-07-22T04:01:03;100031.28;;;24.12;100.00
55675;BME280;41562;44.330;23.802;2023-07-22T04:04:01;100024.78;;;23.97;100.00
55675;BME280;41562;44.330;23.802;2023-07-22T04:06:53;100023.72;;;23.37;100.00
55675;BME280;41562;44.330;23.802;2023-07-22T04:09:47;100005.13;;;23.42;100.00
55675;BME280;41562;44.330;23.802;2023-07-22T04:12:41;99980.31;;;23.09;100.00
55675;BME280;41562;44.330;23.802;2023-07-22T04:15:33;99976.56;;;23.36;100.00
55675;BME280;41562;44.330;23.802;2023-07-22T04:18:29;99979.56;;;23.50;100.00
55675;BME280;41562;44.330;23.802;2023-07-22T04:21:24;99978.66;;;23.46;100.00
55675;BME280;41562;44.330;23.802;2023-07-22T04:24:24;99963.91;;;23.47;100.00
55675;BME280;41562;44.330;23.802;2023-07-22T04:27:00;99968.56;;;23.47;100.00
55675;BME280;41562;44.330;23.802;2023-07-22T04:29:35;99978.75;;;23.73;100.00
55675;BME280;41562;44.330;23.802;2023-07-22T04:32:09;99963.06;;;23.92;100.00
55675;BME280;41562;44.330;23.802;2023-07-22T04:34:41;99983.13;;;23.54;100.00
55675;BME280;41562;44.330;23.802;2023-07-22T04:37:12;99996.41;;;23.79;100.00
55675;BME280;41562;44.330;23.802;2023-07-22T04:39:40;100018.56;;;23.74;100.00
55675;BME280;41562;44.330;23.802;2023-07-22T04:42:12;100040.09;;;23.79;100.00
55675;BME280;41562;44.330;23.802;2023-07-22T04:44:44;100054.41;;;23.49;100.00
55675;BME280;41562;44.330;23.802;2023-07-22T04:47:17;100040.09;;;23.56;100.00
55675;BME280;41562;44.330;23.802;2023-07-22T04:49:45;100047.31;;;24.13;100.00
55675;BME280;41562;44.330;23.802;2023-07-22T04:52:18;100045.41;;;24.17;100.00
55675;BME280;41562;44.330;23.802;2023-07-22T04:54:49;100022.25;;;23.85;100.00
55675;BME280;41562;44.330;23.802;2023-07-22T04:57:17;100008.13;;;23.79;100.00
55675;BME280;41562;44.330;23.802;2023-07-22T04:59:46;100004.38;;;23.64;100.00
55675;BME280;41562;44.330;23.802;2023-07-22T05:02:20;99990.66;;;23.19;100.00
55675;BME280;41562;44.330;23.802;2023-07-22T05:04:51;99972.53;;;23.30;100.00
55675;BME280;41562;44.330;23.802;2023-07-22T05:07:30;100025.06;;;23.65;100.00
55675;BME280;41562;44.330;23.802;2023-07-22T05:10:01;100044.16;;;23.65;100.00
55675;BME280;41562;44.330;23.802;2023-07-22T05:12:35;100056.78;;;23.74;100.00
55675;BME280;41562;44.330;23.802;2023-07-22T05:15:10;100100.84;;;23.72;100.00
55675;BME280;41562;44.330;23.802;2023-07-22T05:17:44;100102.91;;;23.79;100.00
55675;BME280;41562;44.330;23.802;2023-07-22T05:20:12;100100.00;;;23.91;100.00
55675;BME280;41562;44.330;23.802;2023-07-22T05:22:44;100113.88;;;24.01;100.00
55675;BME280;41562;44.330;23.802;2023-07-22T05:25:15;100108.00;;;24.22;100.00
55675;BME280;41562;44.330;23.802;2023-07-22T05:27:43;100120.34;;;24.16;100.00
55675;BME280;41562;44.330;23.802;2023-07-22T05:30:14;100117.44;;;24.05;100.00
55675;BME280;41562;44.330;23.802;2023-07-22T05:33:01;100118.25;;;24.06;100.00
55675;BME280;41562;44.330;23.802;2023-07-22T05:35:32;100103.44;;;24.07;100.00
55675;BME280;41562;44.330;23.802;2023-07-22T05:38:02;100086.00;;;23.92;100.00
55675;BME280;41562;44.330;23.802;2023-07-22T05:40:36;100063.28;;;23.46;100.00
55675;BME280;41562;44.330;23.802;2023-07-22T05:43:04;100092.56;;;23.88;100.00
55675;BME280;41562;44.330;23.802;2023-07-22T05:45:37;100094.38;;;24.03;100.00
55675;BME280;41562;44.330;23.802;2023-07-22T05:48:12;100112.28;;;24.00;100.00
55675;BME280;41562;44.330;23.802;2023-07-22T05:50:49;100106.69;;;24.16;100.00
55675;BME280;41562;44.330;23.802;2023-07-22T05:53:28;100091.22;;;24.01;100.00
55675;BME280;41562;44.330;23.802;2023-07-22T05:56:00;100094.44;;;24.07;100.00
55675;BME280;41562;44.330;23.802;2023-07-22T05:58:28;100093.34;;;24.11;100.00
55675;BME280;41562;44.330;23.802;2023-07-22T06:00:58;100100.56;;;24.00;100.00
55675;BME280;41562;44.330;23.802;2023-07-22T06:06:08;100068.88;;;23.73;100.00
55675;BME280;41562;44.330;23.802;2023-07-22T06:08:36;100055.47;;;23.64;100.00
55675;BME280;41562;44.330;23.802;2023-07-22T06:11:38;100049.44;;;23.78;100.00
55675;BME280;41562;44.330;23.802;2023-07-22T06:14:08;100038.88;;;23.34;100.00
55675;BME280;41562;44.330;23.802;2023-07-22T06:16:50;100021.22;;;23.28;100.00
55675;BME280;41562;44.330;23.802;2023-07-22T06:19:18;100021.97;;;23.25;100.00
55675;BME280;41562;44.330;23.802;2023-07-22T06:22:15;100015.94;;;22.97;100.00
55675;BME280;41562;44.330;23.802;2023-07-22T06:25:00;99994.69;;;23.25;100.00
55675;BME280;41562;44.330;23.802;2023-07-22T06:27:52;99989.81;;;23.57;100.00
55675;BME280;41562;44.330;23.802;2023-07-22T06:30:33;99984.09;;;23.88;100.00
55675;BME280;41562;44.330;23.802;2023-07-22T06:33:05;99980.72;;;23.98;100.00
55675;BME280;41562;44.330;23.802;2023-07-22T06:35:54;99987.97;;;24.36;100.00
55675;BME280;41562;44.330;23.802;2023-07-22T06:38:24;100001.59;;;24.63;100.00
55675;BME280;41562;44.330;23.802;2023-07-22T06:40:53;99998.69;;;24.78;100.00
55675;BME280;41562;44.330;23.802;2023-07-22T06:43:21;100004.06;;;25.01;100.00
55675;BME280;41562;44.330;23.802;2023-07-22T06:45:48;100000.56;;;25.04;100.00
55675;BME280;41562;44.330;23.802;2023-07-22T06:48:16;99998.91;;;24.96;100.00
55675;BME280;41562;44.330;23.802;2023-07-22T06:50:49;99984.13;;;25.01;98.90
55675;BME280;41562;44.330;23.802;2023-07-22T06:53:31;99974.31;;;25.37;99.47
55675;BME280;41562;44.330;23.802;2023-07-22T06:55:59;99972.63;;;25.25;100.00
55675;BME280;41562;44.330;23.802;2023-07-22T06:58:26;99982.13;;;25.35;99.60
55675;BME280;41562;44.330;23.802;2023-07-22T07:00:54;99996.66;;;25.79;98.46
55675;BME280;41562;44.330;23.802;2023-07-22T07:03:22;99987.72;;;25.93;97.88
55675;BME280;41562;44.330;23.802;2023-07-22T07:05:57;99978.03;;;26.02;96.74
55675;BME280;41562;44.330;23.802;2023-07-22T07:08:27;99994.56;;;26.17;94.71
55675;BME280;41562;44.330;23.802;2023-07-22T07:14:06;100006.56;;;26.49;92.71
55675;BME280;41562;44.330;23.802;2023-07-22T07:16:41;100008.22;;;26.71;89.84
55675;BME280;41562;44.330;23.802;2023-07-22T07:19:13;100010.72;;;26.98;88.18
55675;BME280;41562;44.330;23.802;2023-07-22T07:21:41;100018.28;;;26.42;91.39
55675;BME280;41562;44.330;23.802;2023-07-22T07:24:08;100014.34;;;26.40;90.91
55675;BME280;41562;44.330;23.802;2023-07-22T07:26:36;100020.44;;;26.88;90.40
55675;BME280;41562;44.330;23.802;2023-07-22T07:29:04;100028.78;;;27.09;88.83
55675;BME280;41562;44.330;23.802;2023-07-22T07:31:37;100023.25;;;26.92;89.27
55675;BME280;41562;44.330;23.802;2023-07-22T07:34:05;100017.84;;;27.27;87.81
55675;BME280;41562;44.330;23.802;2023-07-22T07:36:36;100017.53;;;27.53;86.57
55675;BME280;41562;44.330;23.802;2023-07-22T07:39:09;100020.69;;;27.77;84.94
55675;BME280;41562;44.330;23.802;2023-07-22T07:41:37;100024.25;;;27.74;84.30
55675;BME280;41562;44.330;23.802;2023-07-22T07:44:05;100021.06;;;27.57;86.27
55675;BME280;41562;44.330;23.802;2023-07-22T07:46:33;100028.94;;;27.84;86.25
55675;BME280;41562;44.330;23.802;2023-07-22T07:49:04;100031.31;;;27.96;86.70
55675;BME280;41562;44.330;23.802;2023-07-22T07:51:37;100039.16;;;27.83;85.05
55675;BME280;41562;44.330;23.802;2023-07-22T07:54:08;100030.50;;;27.71;84.10
55675;BME280;41562;44.330;23.802;2023-07-22T07:56:47;100032.88;;;27.83;85.32
55675;BME280;41562;44.330;23.802;2023-07-22T07:59:17;100030.53;;;27.92;82.87
55675;BME280;41562;44.330;23.802;2023-07-22T08:01:45;100023.84;;;27.86;83.53
55675;BME280;41562;44.330;23.802;2023-07-22T08:04:16;100017.16;;;28.12;83.25
55675;BME280;41562;44.330;23.802;2023-07-22T08:06:52;100027.38;;;28.11;81.53
55675;BME280;41562;44.330;23.802;2023-07-22T08:09:24;100030.13;;;28.29;82.22
55675;BME280;41562;44.330;23.802;2023-07-22T08:11:54;100026.56;;;28.43;83.21
55675;BME280;41562;44.330;23.802;2023-07-22T08:14:22;100026.56;;;28.50;83.59
55675;BME280;41562;44.330;23.802;2023-07-22T08:16:53;100030.88;;;28.51;81.77
55675;BME280;41562;44.330;23.802;2023-07-22T08:19:27;100031.22;;;28.67;82.12
55675;BME280;41562;44.330;23.802;2023-07-22T08:21:55;100045.38;;;28.76;81.53
55675;BME280;41562;44.330;23.802;2023-07-22T08:24:22;100035.91;;;28.84;80.75
55675;BME280;41562;44.330;23.802;2023-07-22T08:26:55;100028.78;;;28.94;79.45
55675;BME280;41562;44.330;23.802;2023-07-22T08:29:28;100032.31;;;29.01;78.58
55675;BME280;41562;44.330;23.802;2023-07-22T08:31:56;100030.00;;;28.86;81.67
55675;BME280;41562;44.330;23.802;2023-07-22T08:34:30;100041.31;;;29.05;76.76
55675;BME280;41562;44.330;23.802;2023-07-22T08:36:59;100034.66;;;28.99;79.24
55675;BME280;41562;44.330;23.802;2023-07-22T08:39:31;100022.44;;;29.04;80.09
55675;BME280;41562;44.330;23.802;2023-07-22T08:42:04;100031.41;;;29.26;74.46
55675;BME280;41562;44.330;23.802;2023-07-22T08:44:34;100028.63;;;29.22;76.96
55675;BME280;41562;44.330;23.802;2023-07-22T08:47:05;100029.38;;;29.30;73.44
55675;BME280;41562;44.330;23.802;2023-07-22T08:49:36;100020.41;;;29.18;77.43
55675;BME280;41562;44.330;23.802;2023-07-22T08:52:07;100020.81;;;29.21;78.96
55675;BME280;41562;44.330;23.802;2023-07-22T08:54:38;100031.03;;;29.20;76.34
55675;BME280;41562;44.330;23.802;2023-07-22T08:57:11;100019.19;;;29.27;76.43
55675;BME280;41562;44.330;23.802;2023-07-22T08:59:39;100023.09;;;29.40;73.68
55675;BME280;41562;44.330;23.802;2023-07-22T09:02:10;100025.44;;;29.38;76.65
55675;BME280;41562;44.330;23.802;2023-07-22T09:04:40;100026.72;;;29.15;77.84
55675;BME280;41562;44.330;23.802;2023-07-22T09:07:14;100030.16;;;29.37;77.50
55675;BME280;41562;44.330;23.802;2023-07-22T09:09:52;100028.03;;;29.63;74.67
55675;BME280;41562;44.330;23.802;2023-07-22T09:12:25;100018.53;;;29.67;74.57
55675;BME280;41562;44.330;23.802;2023-07-22T09:14:56;100016.56;;;29.71;73.99
55675;BME280;41562;44.330;23.802;2023-07-22T09:17:30;100011.66;;;29.93;73.03
55675;BME280;41562;44.330;23.802;2023-07-22T09:19:58;100011.69;;;29.86;72.96
55675;BME280;41562;44.330;23.802;2023-07-22T09:22:28;100008.13;;;29.89;73.12
55675;BME280;41562;44.330;23.802;2023-07-22T09:27:47;100009.25;;;29.98;74.37
55675;BME280;41562;44.330;23.802;2023-07-22T09:30:35;100005.38;;;29.92;74.14
55675;BME280;41562;44.330;23.802;2023-07-22T09:33:07;100006.88;;;30.01;71.85
55675;BME280;41562;44.330;23.802;2023-07-22T09:35:49;100010.41;;;30.01;71.66
55675;BME280;41562;44.330;23.802;2023-07-22T09:38:26;100006.03;;;30.04;69.83
55675;BME280;41562;44.330;23.802;2023-07-22T09:40:56;100012.84;;;29.95;69.16
55675;BME280;41562;44.330;23.802;2023-07-22T09:43:24;100012.53;;;29.79;69.79
55675;BME280;41562;44.330;23.802;2023-07-22T09:46:05;100020.06;;;29.75;69.16
55675;BME280;41562;44.330;23.802;2023-07-22T09:48:59;100024.38;;;29.76;71.85
55675;BME280;41562;44.330;23.802;2023-07-22T09:51:36;100022.81;;;29.75;70.53
55675;BME280;41562;44.330;23.802;2023-07-22T09:54:19;100026.19;;;30.01;70.24
55675;BME280;41562;44.330;23.802;2023-07-22T09:56:49;100009.91;;;29.65;70.19
55675;BME280;41562;44.330;23.802;2023-07-22T09:59:21;100007.34;;;29.92;70.47
55675;BME280;41562;44.330;23.802;2023-07-22T10:01:49;100020.66;;;30.01;72.17
55675;BME280;41562;44.330;23.802;2023-07-22T10:04:21;100017.06;;;30.07;69.54
55675;BME280;41562;44.330;23.802;2023-07-22T10:06:51;100015.94;;;30.01;70.64
55675;BME280;41562;44.330;23.802;2023-07-22T10:09:20;100021.28;;;30.19;70.92
55675;BME280;41562;44.330;23.802;2023-07-22T10:11:49;100016.59;;;30.16;72.94
55675;BME280;41562;44.330;23.802;2023-07-22T10:14:20;100010.09;;;29.88;71.01
55675;BME280;41562;44.330;23.802;2023-07-22T10:16:48;100015.59;;;29.95;73.08
55675;BME280;41562;44.330;23.802;2023-07-22T10:19:24;100007.56;;;30.12;71.62
55675;BME280;41562;44.330;23.802;2023-07-22T10:21:59;100011.50;;;30.11;71.14
55675;BME280;41562;44.330;23.802;2023-07-22T10:24:27;100013.06;;;30.12;72.95
55675;BME280;41562;44.330;23.802;2023-07-22T10:26:55;100005.78;;;30.32;73.23
55675;BME280;41562;44.330;23.802;2023-07-22T10:29:26;100000.91;;;30.43;68.63
55675;BME280;41562;44.330;23.802;2023-07-22T10:31:57;99994.69;;;30.35;70.86
55675;BME280;41562;44.330;23.802;2023-07-22T10:34:24;100003.22;;;30.52;70.85
55675;BME280;41562;44.330;23.802;2023-07-22T10:36:57;100004.03;;;30.49;70.24
55675;BME280;41562;44.330;23.802;2023-07-22T10:39:28;100004.81;;;30.53;70.12
55675;BME280;41562;44.330;23.802;2023-07-22T10:42:02;100009.88;;;30.54;71.32
55675;BME280;41562;44.330;23.802;2023-07-22T10:44:36;100000.47;;;30.48;70.73
55675;BME280;41562;44.330;23.802;2023-07-22T10:47:08;100009.47;;;30.59;69.54
55675;BME280;41562;44.330;23.802;2023-07-22T10:49:44;100008.78;;;30.45;70.73
55675;BME280;41562;44.330;23.802;2023-07-22T10:52:20;100011.91;;;30.50;71.24
55675;BME280;41562;44.330;23.802;2023-07-22T10:55:03;100018.06;;;30.65;70.62
55675;BME280;41562;44.330;23.802;2023-07-22T10:57:50;100022.81;;;30.64;69.34
55675;BME280;41562;44.330;23.802;2023-07-22T11:00:20;100019.97;;;30.71;68.85
55675;BME280;41562;44.330;23.802;2023-07-22T11:03:10;100015.09;;;30.45;67.37
55675;BME280;41562;44.330;23.802;2023-07-22T11:05:53;100023.63;;;30.61;68.36
55675;BME280;41562;44.330;23.802;2023-07-22T11:08:38;100019.50;;;30.76;67.74
55675;BME280;41562;44.330;23.802;2023-07-22T11:11:06;100012.50;;;30.68;68.77
55675;BME280;41562;44.330;23.802;2023-07-22T11:13:37;100008.41;;;30.46;68.75
55675;BME280;41562;44.330;23.802;2023-07-22T11:16:12;99999.69;;;30.51;68.51
55675;BME280;41562;44.330;23.802;2023-07-22T11:18:43;100005.16;;;30.55;69.80
55675;BME280;41562;44.330;23.802;2023-07-22T11:21:13;100000.00;;;30.57;69.23
55675;BME280;41562;44.330;23.802;2023-07-22T11:23:41;99999.88;;;30.67;70.36
55675;BME280;41562;44.330;23.802;2023-07-22T11:26:15;99997.56;;;30.62;69.58
55675;BME280;41562;44.330;23.802;2023-07-22T11:28:46;99987.28;;;30.66;72.35
55675;BME280;41562;44.330;23.802;2023-07-22T11:31:14;100001.44;;;30.68;70.16
55675;BME280;41562;44.330;23.802;2023-07-22T11:33:48;99985.41;;;30.60;70.68
55675;BME280;41562;44.330;23.802;2023-07-22T11:36:15;99980.84;;;30.76;68.89
55675;BME280;41562;44.330;23.802;2023-07-22T11:38:48;99975.41;;;30.69;69.23
55675;BME280;41562;44.330;23.802;2023-07-22T11:41:20;99979.50;;;30.58;70.19
55675;BME280;41562;44.330;23.802;2023-07-22T11:43:58;99988.94;;;30.60;68.49
55675;BME280;41562;44.330;23.802;2023-07-22T11:46:27;99984.75;;;30.45;68.64
55675;BME280;41562;44.330;23.802;2023-07-22T11:48:57;99974.75;;;30.58;70.02
55675;BME280;41562;44.330;23.802;2023-07-22T11:51:42;99989.75;;;30.57;67.33
55675;BME280;41562;44.330;23.802;2023-07-22T11:54:10;99986.28;;;30.53;67.65
55675;BME280;41562;44.330;23.802;2023-07-22T11:56:41;99980.19;;;30.65;69.25
55675;BME280;41562;44.330;23.802;2023-07-22T11:59:11;99979.38;;;30.68;68.64
55675;BME280;41562;44.330;23.802;2023-07-22T12:01:45;99978.53;;;30.71;70.62
55675;BME280;41562;44.330;23.802;2023-07-22T12:04:18;99982.41;;;30.77;68.02
55675;BME280;41562;44.330;23.802;2023-07-22T12:06:53;99977.28;;;30.76;69.27
55675;BME280;41562;44.330;23.802;2023-07-22T12:09:31;99973.28;;;30.81;68.54
55675;BME280;41562;44.330;23.802;2023-07-22T12:12:07;99985.59;;;30.76;68.59
55675;BME280;41562;44.330;23.802;2023-07-22T12:14:36;99975.25;;;30.80;66.37
55675;BME280;41562;44.330;23.802;2023-07-22T12:17:11;99962.06;;;30.64;66.19
55675;BME280;41562;44.330;23.802;2023-07-22T12:19:54;99965.38;;;30.83;67.21
55675;BME280;41562;44.330;23.802;2023-07-22T12:22:30;99962.16;;;30.88;65.26
55675;BME280;41562;44.330;23.802;2023-07-22T12:25:06;99963.34;;;30.87;65.67
55675;BME280;41562;44.330;23.802;2023-07-22T12:27:40;99967.97;;;30.97;66.38
55675;BME280;41562;44.330;23.802;2023-07-22T12:30:14;99962.28;;;31.11;63.08
55675;BME280;41562;44.330;23.802;2023-07-22T12:32:45;99959.56;;;31.04;64.75
55675;BME280;41562;44.330;23.802;2023-07-22T12:35:18;99957.63;;;31.04;65.75
55675;BME280;41562;44.330;23.802;2023-07-22T12:37:52;99954.22;;;31.20;66.24
55675;BME280;41562;44.330;23.802;2023-07-22T12:40:23;99959.91;;;31.09;67.68
55675;BME280;41562;44.330;23.802;2023-07-22T12:42:55;99948.47;;;31.11;66.91
55675;BME280;41562;44.330;23.802;2023-07-22T12:45:29;99952.09;;;31.04;64.41
55675;BME280;41562;44.330;23.802;2023-07-22T12:47:59;99941.78;;;31.08;66.06
55675;BME280;41562;44.330;23.802;2023-07-22T12:50:29;99936.56;;;31.14;67.67
55675;BME280;41562;44.330;23.802;2023-07-22T12:53:05;99941.06;;;31.04;67.24
55675;BME280;41562;44.330;23.802;2023-07-22T12:55:48;99945.78;;;31.00;65.09
55675;BME280;41562;44.330;23.802;2023-07-22T12:58:21;99950.09;;;31.05;63.83
55675;BME280;41562;44.330;23.802;2023-07-22T13:00:53;99936.72;;;31.00;65.88
55675;BME280;41562;44.330;23.802;2023-07-22T13:03:27;99935.53;;;31.01;68.40
55675;BME280;41562;44.330;23.802;2023-07-22T13:06:01;99933.78;;;31.14;70.86
55675;BME280;41562;44.330;23.802;2023-07-22T13:08:29;99943.00;;;31.04;65.21
55675;BME280;41562;44.330;23.802;2023-07-22T13:10:57;99935.94;;;30.99;63.91
55675;BME280;41562;44.330;23.802;2023-07-22T13:13:44;99930.75;;;31.05;64.37
55675;BME280;41562;44.330;23.802;2023-07-22T13:16:14;99932.78;;;31.28;65.46
55675;BME280;41562;44.330;23.802;2023-07-22T13:18:48;99938.16;;;31.38;67.73
55675;BME280;41562;44.330;23.802;2023-07-22T13:21:20;99925.97;;;31.36;64.60
55675;BME280;41562;44.330;23.802;2023-07-22T13:23:56;99929.38;;;31.43;76.38
55675;BME280;41562;44.330;23.802;2023-07-22T13:26:30;99921.69;;;31.31;67.30
55675;BME280;41562;44.330;23.802;2023-07-22T13:28:58;99927.28;;;31.28;66.26
55675;BME280;41562;44.330;23.802;2023-07-22T13:31:32;99920.44;;;31.36;66.84
55675;BME280;41562;44.330;23.802;2023-07-22T13:34:08;99923.84;;;31.43;68.99
55675;BME280;41562;44.330;23.802;2023-07-22T13:36:40;99935.28;;;31.45;64.26
55675;BME280;41562;44.330;23.802;2023-07-22T13:39:13;99921.94;;;31.40;69.02
55675;BME280;41562;44.330;23.802;2023-07-22T13:41:44;99935.66;;;31.47;71.23
55675;BME280;41562;44.330;23.802;2023-07-22T13:44:23;99940.44;;;31.43;66.34
55675;BME280;41562;44.330;23.802;2023-07-22T13:46:51;99923.00;;;31.46;66.29